createdAt,value
2023-02-11T00:01:32.181Z,13.53
2023-02-11T00:03:34.718Z,12.90
2023-02-11T00:05:37.576Z,13.40
2023-02-11T00:07:39.800Z,12.70
2023-02-11T00:09:42.609Z,12.67
2023-02-11T00:11:45.139Z,14.00
2023-02-11T00:13:48.337Z,13.53
2023-02-11T00:15:51.465Z,13.57
2023-02-11T00:17:54.175Z,14.27
2023-02-11T00:19:56.997Z,14.37
2023-02-11T00:22:00.652Z,13.70
2023-02-11T00:24:03.448Z,14.80
2023-02-11T00:26:13.175Z,13.13
2023-02-11T00:28:16.017Z,14.25
2023-02-11T00:30:18.558Z,13.83
2023-02-11T00:32:21.566Z,13.17
2023-02-11T00:34:23.735Z,13.80
2023-02-11T00:36:27.775Z,15.43
2023-02-11T00:38:30.294Z,14.57
2023-02-11T00:40:33.325Z,15.07
2023-02-11T00:42:38.325Z,13.73
2023-02-11T00:44:41.241Z,14.97
2023-02-11T00:46:43.965Z,13.07
2023-02-11T00:48:46.780Z,15.13
2023-02-11T00:50:49.015Z,14.10
2023-02-11T00:52:51.801Z,13.90
2023-02-11T00:54:54.138Z,12.00
2023-02-11T00:56:57.008Z,12.67
2023-02-11T00:58:59.608Z,12.50
2023-02-11T01:01:02.517Z,13.20
2023-02-11T01:03:05.066Z,12.60
2023-02-11T01:05:08.097Z,12.67
2023-02-11T01:07:10.256Z,13.37
2023-02-11T01:09:13.030Z,12.97
2023-02-11T01:11:18.207Z,11.77
2023-02-11T01:13:21.081Z,13.43
2023-02-11T01:15:23.864Z,11.93
2023-02-11T01:17:26.356Z,11.40
2023-02-11T01:19:28.858Z,13.77
2023-02-11T01:21:31.320Z,11.27
2023-02-11T01:23:33.854Z,13.80
2023-02-11T01:25:36.640Z,11.90
2023-02-11T01:27:39.301Z,13.87
2023-02-11T01:29:41.686Z,12.00
2023-02-11T01:31:44.243Z,11.67
2023-02-11T01:33:47.160Z,12.30
2023-02-11T01:35:50.284Z,13.83
2023-02-11T01:37:53.322Z,13.67
2023-02-11T01:39:55.766Z,12.97
2023-02-11T01:41:58.547Z,11.87
2023-02-11T01:44:23.050Z,12.10
2023-02-11T01:46:36.846Z,12.30
2023-02-11T01:48:45.933Z,13.67
2023-02-11T01:50:53.134Z,13.15
2023-02-11T01:53:15.709Z,13.33
2023-02-11T01:55:36.764Z,12.40
2023-02-11T01:57:41.927Z,12.20
2023-02-11T01:59:54.544Z,10.93
2023-02-11T02:02:05.054Z,12.13
2023-02-11T02:04:10.075Z,10.83
2023-02-11T02:06:35.035Z,12.23
2023-02-11T02:09:08.936Z,11.70
2023-02-11T02:11:11.898Z,13.07
2023-02-11T02:13:15.115Z,10.73
2023-02-11T02:15:26.633Z,11.80
2023-02-11T02:17:41.768Z,11.37
2023-02-11T02:20:24.605Z,10.50
2023-02-11T02:23:09.525Z,10.17
2023-02-11T02:25:14.578Z,10.63
2023-02-11T02:27:44.052Z,11.83
2023-02-11T02:30:13.208Z,11.20
2023-02-11T02:32:52.413Z,11.20
2023-02-11T02:35:15.706Z,10.17
2023-02-11T02:37:27.661Z,11.60
2023-02-11T02:39:33.844Z,10.27
2023-02-11T02:41:37.931Z,10.57
2023-02-11T02:43:49.026Z,9.57
2023-02-11T02:45:51.673Z,10.70
2023-02-11T02:47:54.509Z,10.40
2023-02-11T02:49:57.541Z,10.83
2023-02-11T02:52:42.305Z,12.07
2023-02-11T02:55:06.057Z,10.70
2023-02-11T02:57:52.343Z,10.43
2023-02-11T03:00:27.342Z,11.30
2023-02-11T03:02:38.948Z,10.67
2023-02-11T03:05:18.789Z,10.90
2023-02-11T03:07:21.243Z,11.40
2023-02-11T03:09:47.980Z,12.20
2023-02-11T03:11:50.242Z,13.30
2023-02-11T03:13:54.742Z,12.27
2023-02-11T03:15:58.817Z,12.50
2023-02-11T03:18:03.635Z,11.73
2023-02-11T03:20:08.104Z,12.17
2023-02-11T03:22:30.164Z,13.67
2023-02-11T03:24:37.133Z,12.33
2023-02-11T03:26:46.607Z,11.83
2023-02-11T03:28:49.041Z,11.18
2023-02-11T03:31:10.250Z,11.53
2023-02-11T03:33:29.396Z,11.30
2023-02-11T03:35:55.746Z,9.85
2023-02-11T03:37:59.938Z,13.23
2023-02-11T03:40:11.571Z,11.10
2023-02-11T03:42:15.843Z,10.63
2023-02-11T03:44:20.075Z,10.87
2023-02-11T03:46:28.895Z,11.20
2023-02-11T03:48:45.139Z,12.68
2023-02-11T03:50:49.157Z,13.20
2023-02-11T03:52:52.860Z,12.30
2023-02-11T03:54:57.984Z,12.13
2023-02-11T03:57:02.216Z,13.10
2023-02-11T03:59:05.076Z,12.97
2023-02-11T04:01:09.925Z,15.57
2023-02-11T04:03:12.667Z,12.83
2023-02-11T04:05:16.565Z,11.23
2023-02-11T04:07:19.041Z,12.90
2023-02-11T04:09:21.596Z,12.97
2023-02-11T04:11:24.045Z,13.70
2023-02-11T04:13:26.525Z,13.57
2023-02-11T04:15:29.095Z,15.60
2023-02-11T04:17:31.892Z,14.73
2023-02-11T04:19:34.420Z,13.93
2023-02-11T04:21:36.786Z,13.67
2023-02-11T04:23:39.265Z,13.33
2023-02-11T04:25:42.391Z,14.53
2023-02-11T04:27:44.928Z,13.53
2023-02-11T04:30:06.898Z,13.83
2023-02-11T04:32:10.703Z,14.00
2023-02-11T04:34:13.126Z,12.90
2023-02-11T04:36:15.596Z,12.60
2023-02-11T04:38:18.052Z,12.83
2023-02-11T04:40:20.581Z,13.40
2023-02-11T04:42:22.935Z,12.93
2023-02-11T04:44:25.383Z,13.87
2023-02-11T04:46:27.892Z,14.30
2023-02-11T04:48:30.548Z,13.03
2023-02-11T04:50:33.338Z,13.53
2023-02-11T04:52:35.844Z,13.73
2023-02-11T04:54:38.670Z,14.67
2023-02-11T04:56:40.859Z,14.27
2023-02-11T04:58:43.658Z,13.90
2023-02-11T05:00:46.458Z,15.10
2023-02-11T05:02:49.251Z,14.43
2023-02-11T05:04:51.768Z,13.63
2023-02-11T05:06:54.622Z,15.97
2023-02-11T05:08:57.750Z,15.20
2023-02-11T05:11:02.348Z,15.13
2023-02-11T05:13:05.076Z,14.77
2023-02-11T05:15:07.967Z,13.67
2023-02-11T05:17:10.221Z,14.30
2023-02-11T05:19:13.024Z,14.63
2023-02-11T05:21:17.602Z,13.93
2023-02-11T05:23:20.409Z,13.47
2023-02-11T05:25:22.547Z,13.17
2023-02-11T05:27:25.343Z,13.17
2023-02-11T05:29:27.961Z,13.63
2023-02-11T05:31:30.846Z,14.90
2023-02-11T05:33:33.427Z,13.47
2023-02-11T05:35:36.156Z,13.10
2023-02-11T05:37:38.843Z,12.40
2023-02-11T05:39:41.690Z,11.67
2023-02-11T05:41:43.790Z,13.10
2023-02-11T05:43:51.069Z,13.43
2023-02-11T05:45:53.652Z,12.73
2023-02-11T05:47:56.691Z,13.30
2023-02-11T05:49:58.811Z,12.50
2023-02-11T05:52:01.555Z,13.00
2023-02-11T05:54:03.902Z,12.70
2023-02-11T05:56:06.997Z,13.40
2023-02-11T05:58:09.234Z,13.80
2023-02-11T06:00:12.574Z,12.00
2023-02-11T06:02:15.217Z,12.73
2023-02-11T06:04:17.719Z,12.73
2023-02-11T06:06:20.198Z,13.03
2023-02-11T06:08:22.591Z,12.47
2023-02-11T06:10:25.099Z,12.33
2023-02-11T06:12:27.588Z,11.93
2023-02-11T06:14:30.124Z,11.53
2023-02-11T06:16:32.962Z,12.80
2023-02-11T06:18:35.488Z,11.40
2023-02-11T06:20:40.956Z,11.60
2023-02-11T06:22:43.091Z,11.70
2023-02-11T06:25:00.465Z,12.73
2023-02-11T06:27:04.596Z,12.23
2023-02-11T06:29:07.451Z,11.73
2023-02-11T06:31:11.902Z,12.83
2023-02-11T06:33:14.795Z,11.37
2023-02-11T06:35:17.340Z,12.23
2023-02-11T06:37:20.146Z,13.67
2023-02-11T06:39:22.671Z,12.20
2023-02-11T06:41:25.613Z,13.03
2023-02-11T06:43:27.780Z,13.10
2023-02-11T06:45:30.567Z,12.83
2023-02-11T06:47:32.647Z,12.50
2023-02-11T06:49:35.440Z,11.53
2023-02-11T06:51:38.082Z,12.63
2023-02-11T06:53:46.291Z,12.37
2023-02-11T06:55:48.995Z,11.87
2023-02-11T06:57:51.609Z,13.00
2023-02-11T06:59:54.171Z,13.10
2023-02-11T07:01:57.152Z,13.00
2023-02-11T07:03:59.703Z,13.00
2023-02-11T07:06:03.172Z,13.00
2023-02-11T07:08:05.948Z,11.50
2023-02-11T07:10:08.953Z,12.10
2023-02-11T07:12:11.558Z,12.77
2023-02-11T07:14:16.360Z,12.97
2023-02-11T07:16:20.989Z,12.03
2023-02-11T07:18:23.384Z,12.47
2023-02-11T07:20:26.217Z,13.40
2023-02-11T07:22:28.983Z,11.80
2023-02-11T07:24:31.505Z,13.00
2023-02-11T07:26:33.898Z,12.47
2023-02-11T07:28:37.656Z,13.87
2023-02-11T07:30:40.188Z,14.67
2023-02-11T07:32:42.713Z,12.93
2023-02-11T07:34:45.598Z,14.07
2023-02-11T07:36:49.138Z,13.82
2023-02-11T07:38:51.936Z,14.55
2023-02-11T07:40:54.468Z,14.20
2023-02-11T07:42:57.304Z,13.88
2023-02-11T07:44:59.845Z,14.43
2023-02-11T07:47:02.714Z,14.77
2023-02-11T07:49:05.233Z,13.88
2023-02-11T07:51:13.601Z,13.88
2023-02-11T07:53:16.178Z,13.88
2023-02-11T07:55:19.049Z,14.50
2023-02-11T07:57:21.559Z,14.05
2023-02-11T07:59:25.003Z,14.30
2023-02-11T08:01:28.786Z,15.10
2023-02-11T08:03:31.796Z,14.73
2023-02-11T08:05:34.245Z,14.68
2023-02-11T08:07:37.052Z,14.20
2023-02-11T08:09:39.574Z,13.90
2023-02-11T08:11:42.468Z,13.98
2023-02-11T08:13:45.335Z,13.75
2023-02-11T08:15:48.431Z,14.68
2023-02-11T08:17:51.029Z,14.00
2023-02-11T08:19:53.783Z,14.73
2023-02-11T08:21:57.104Z,13.90
2023-02-11T08:23:59.963Z,14.35
2023-02-11T08:26:08.329Z,15.25
2023-02-11T08:28:11.275Z,13.40
2023-02-11T08:30:14.482Z,13.20
2023-02-11T08:32:17.340Z,14.02
2023-02-11T08:34:19.934Z,13.65
2023-02-11T08:36:25.223Z,14.40
2023-02-11T08:38:27.750Z,14.18
2023-02-11T08:40:30.272Z,14.80
2023-02-11T08:42:33.046Z,14.88
2023-02-11T08:44:35.568Z,14.20
2023-02-11T08:46:38.353Z,13.65
2023-02-11T08:48:41.262Z,14.02
2023-02-11T08:50:44.058Z,14.88
2023-02-11T08:52:46.513Z,14.48
2023-02-11T08:54:49.624Z,13.73
2023-02-11T08:56:52.590Z,14.30
2023-02-11T08:58:55.485Z,14.48
2023-02-11T09:00:58.056Z,13.95
2023-02-11T09:03:01.550Z,14.15
2023-02-11T09:05:04.220Z,15.63
2023-02-11T09:07:07.369Z,14.30
2023-02-11T09:09:13.683Z,14.15
2023-02-11T09:11:18.304Z,13.52
2023-02-11T09:13:20.918Z,13.88
2023-02-11T09:15:23.734Z,13.93
2023-02-11T09:17:26.210Z,13.80
2023-02-11T09:19:29.061Z,13.68
2023-02-11T09:21:31.934Z,14.73
2023-02-11T09:23:34.897Z,14.93
2023-02-11T09:25:40.679Z,12.93
2023-02-11T09:27:43.523Z,13.20
2023-02-11T09:29:46.057Z,13.38
2023-02-11T09:31:49.930Z,13.57
2023-02-11T09:33:55.585Z,13.95
2023-02-11T09:36:01.847Z,14.68
2023-02-11T09:38:04.398Z,13.43
2023-02-11T09:40:07.406Z,14.30
2023-02-11T09:42:20.709Z,15.88
2023-02-11T09:44:29.598Z,13.13
2023-02-11T09:46:43.304Z,14.65
2023-02-11T09:48:49.297Z,14.00
2023-02-11T09:50:55.647Z,14.02
2023-02-11T09:53:02.984Z,13.75
2023-02-11T09:55:30.105Z,14.07
2023-02-11T09:57:35.226Z,14.60
2023-02-11T09:59:37.764Z,13.70
2023-02-11T10:02:05.251Z,14.30
2023-02-11T10:04:47.744Z,13.93
2023-02-11T10:07:01.969Z,13.88
2023-02-11T10:09:13.253Z,14.55
2023-02-11T10:11:30.619Z,13.10
2023-02-11T10:14:06.067Z,13.48
2023-02-11T10:16:37.549Z,13.60
2023-02-11T10:18:51.764Z,13.77
2023-02-11T10:21:18.010Z,14.98
2023-02-11T10:23:25.848Z,14.45
2023-02-11T10:25:41.579Z,15.52
2023-02-11T10:28:02.463Z,14.55
2023-02-11T10:30:10.244Z,13.07
2023-02-11T10:32:37.961Z,14.32
2023-02-11T10:34:42.520Z,15.32
2023-02-11T10:36:45.746Z,13.52
2023-02-11T10:38:48.549Z,15.48
2023-02-11T10:40:51.688Z,14.30
2023-02-11T10:42:59.225Z,14.75
2023-02-11T10:45:05.099Z,14.88
2023-02-11T10:47:21.278Z,13.20
2023-02-11T10:49:44.647Z,14.27
2023-02-11T10:51:47.443Z,14.17
2023-02-11T10:54:14.420Z,14.38
2023-02-11T10:56:27.902Z,14.60
2023-02-11T10:58:41.393Z,15.15
2023-02-11T11:00:44.425Z,15.20
2023-02-11T11:03:15.373Z,15.23
2023-02-11T11:05:39.849Z,14.90
2023-02-11T11:07:56.204Z,13.77
2023-02-11T11:10:25.424Z,16.17
2023-02-11T11:12:44.956Z,16.25
2023-02-11T11:14:57.814Z,14.35
2023-02-11T11:17:00.346Z,15.30
2023-02-11T11:19:08.587Z,14.48
2023-02-11T11:21:23.687Z,15.00
2023-02-11T11:23:26.905Z,16.20
2023-02-11T11:25:32.301Z,15.02
2023-02-11T11:27:35.123Z,13.60
2023-02-11T11:29:48.198Z,15.37
2023-02-11T11:32:00.886Z,13.75
2023-02-11T11:34:21.655Z,13.87
2023-02-11T11:36:33.760Z,13.80
2023-02-11T11:38:43.061Z,13.45
2023-02-11T11:40:45.915Z,14.30
2023-02-11T11:43:04.194Z,15.93
2023-02-11T11:45:06.933Z,14.83
2023-02-11T11:47:12.026Z,15.63
2023-02-11T11:49:33.028Z,15.40
2023-02-11T11:51:37.918Z,15.50
2023-02-11T11:54:00.900Z,16.17
2023-02-11T11:56:15.530Z,15.70
2023-02-11T11:58:21.473Z,16.67
2023-02-11T12:00:43.829Z,16.13
2023-02-11T12:03:04.436Z,16.77
2023-02-11T12:05:13.975Z,16.03
2023-02-11T12:07:26.049Z,15.25
2023-02-11T12:09:59.338Z,14.67
2023-02-11T12:12:39.134Z,14.90
2023-02-11T12:15:20.076Z,15.38
2023-02-11T12:17:38.527Z,15.80
2023-02-11T12:19:56.550Z,16.93
2023-02-11T12:22:23.424Z,17.83
2023-02-11T12:24:27.583Z,16.27
2023-02-11T12:26:45.652Z,17.70
2023-02-11T12:29:08.932Z,18.60
2023-02-11T12:31:49.597Z,17.73
2023-02-11T12:34:16.349Z,19.23
2023-02-11T12:36:20.717Z,18.63
2023-02-11T12:38:36.528Z,17.80
2023-02-11T12:40:39.276Z,18.40
2023-02-11T12:43:18.897Z,19.10
2023-02-11T12:45:39.664Z,16.80
2023-02-11T12:48:29.140Z,17.70
2023-02-11T12:50:46.016Z,18.27
2023-02-11T12:52:56.222Z,19.00
2023-02-11T12:55:15.765Z,18.73
2023-02-11T12:57:26.271Z,18.63
2023-02-11T12:59:29.068Z,16.87
2023-02-11T13:01:36.905Z,17.50
2023-02-11T13:03:49.179Z,18.10
2023-02-11T13:06:13.979Z,18.83
2023-02-11T13:08:16.786Z,17.50
2023-02-11T13:10:19.384Z,18.07
2023-02-11T13:12:41.462Z,17.63
2023-02-11T13:14:44.062Z,17.43
2023-02-11T13:16:48.914Z,17.63
2023-02-11T13:19:00.222Z,16.60
2023-02-11T13:21:21.237Z,17.23
2023-02-11T13:23:44.439Z,16.80
2023-02-11T13:26:27.828Z,17.27
2023-02-11T13:28:58.676Z,18.13
2023-02-11T13:31:07.167Z,17.17
2023-02-11T13:33:39.532Z,17.50
2023-02-11T13:35:47.084Z,17.07
2023-02-11T13:37:49.273Z,17.60
2023-02-11T13:39:58.899Z,17.57
2023-02-11T13:42:04.451Z,16.48
2023-02-11T13:44:09.793Z,16.63
2023-02-11T13:46:13.896Z,16.43
2023-02-11T13:48:24.104Z,17.60
2023-02-11T13:50:27.596Z,17.13
2023-02-11T13:52:37.506Z,17.13
2023-02-11T13:54:40.324Z,16.20
2023-02-11T13:56:44.207Z,17.97
2023-02-11T13:58:51.457Z,17.67
2023-02-11T14:00:54.388Z,18.90
2023-02-11T14:03:30.314Z,18.83
2023-02-11T14:05:51.931Z,17.17
2023-02-11T14:08:31.127Z,17.27
2023-02-11T14:10:42.155Z,16.70
2023-02-11T14:13:04.287Z,17.37
2023-02-11T14:15:07.993Z,17.33
2023-02-11T14:17:10.625Z,16.97
2023-02-11T14:19:46.800Z,15.63
2023-02-11T14:21:49.422Z,16.57
2023-02-11T14:23:56.883Z,16.47
2023-02-11T14:26:22.153Z,17.17
2023-02-11T14:28:33.009Z,15.37
2023-02-11T14:30:45.164Z,15.73
2023-02-11T14:33:26.265Z,16.53
2023-02-11T14:35:31.272Z,15.30
2023-02-11T14:37:52.312Z,16.03
2023-02-11T14:40:19.349Z,14.77
2023-02-11T14:42:26.896Z,15.13
2023-02-11T14:44:33.146Z,13.57
2023-02-11T14:46:35.564Z,15.43
2023-02-11T14:48:43.265Z,15.50
2023-02-11T14:50:57.848Z,14.60
2023-02-11T14:53:03.093Z,14.00
2023-02-11T14:55:06.548Z,13.97
2023-02-11T14:57:19.955Z,13.73
2023-02-11T14:59:23.264Z,14.63
2023-02-11T15:01:31.293Z,14.03
2023-02-11T15:03:35.024Z,12.77
2023-02-11T15:05:37.861Z,14.57
2023-02-11T15:07:45.249Z,14.20
2023-02-11T15:09:51.388Z,13.37
2023-02-11T15:11:54.425Z,13.17
2023-02-11T15:13:59.166Z,13.73
2023-02-11T15:16:06.870Z,13.47
2023-02-11T15:18:22.800Z,15.07
2023-02-11T15:20:28.428Z,14.40
2023-02-11T15:22:36.629Z,13.70
2023-02-11T15:24:40.311Z,12.80
2023-02-11T15:26:42.821Z,14.67
2023-02-11T15:28:52.644Z,14.13
2023-02-11T15:33:05.688Z,13.67
2023-02-11T15:35:11.204Z,13.97
2023-02-11T15:37:26.034Z,14.77
2023-02-11T15:39:34.869Z,13.73
2023-02-11T15:41:38.315Z,13.17
2023-02-11T15:43:45.871Z,13.93
2023-02-11T15:45:59.315Z,12.80
2023-02-11T15:48:13.885Z,12.53
2023-02-11T15:50:29.069Z,14.23
2023-02-11T15:52:32.036Z,13.27
2023-02-11T15:54:34.351Z,13.63
2023-02-11T15:56:43.561Z,14.30
2023-02-11T15:58:48.312Z,14.70
2023-02-11T16:00:59.650Z,13.37
2023-02-11T16:03:02.132Z,14.17
2023-02-11T16:05:07.817Z,14.53
2023-02-11T16:07:38.798Z,13.70
2023-02-11T16:09:41.230Z,14.37
2023-02-11T16:11:49.135Z,15.43
2023-02-11T16:13:51.552Z,15.73
2023-02-11T16:15:58.484Z,14.63
2023-02-11T16:18:13.497Z,15.37
2023-02-11T16:20:19.455Z,14.60
2023-02-11T16:22:30.591Z,13.87
2023-02-11T16:24:35.392Z,14.13
2023-02-11T16:26:43.192Z,13.93
2023-02-11T16:28:45.482Z,13.47
2023-02-11T16:30:53.237Z,13.50
2023-02-11T16:32:56.034Z,14.40
2023-02-11T16:35:00.998Z,16.63
2023-02-11T16:37:06.437Z,14.20
2023-02-11T16:39:09.319Z,14.10
2023-02-11T16:41:12.816Z,14.87
2023-02-11T16:43:19.984Z,14.73
2023-02-11T16:45:22.548Z,12.30
2023-02-11T16:47:27.110Z,13.57
2023-02-11T16:49:41.814Z,14.03
2023-02-11T16:51:46.754Z,13.50
2023-02-11T16:53:49.318Z,12.50
2023-02-11T16:55:53.241Z,13.70
2023-02-11T16:57:55.727Z,14.60
2023-02-11T16:59:59.396Z,14.60
2023-02-11T17:02:01.933Z,14.57
2023-02-11T17:04:05.095Z,14.67
2023-02-11T17:06:11.734Z,14.03
2023-02-11T17:08:14.878Z,13.97
2023-02-11T17:10:22.105Z,14.23
2023-02-11T17:12:27.889Z,14.20
2023-02-11T17:14:30.398Z,13.57
2023-02-11T17:16:33.317Z,13.27
2023-02-11T17:18:36.952Z,13.17
2023-02-11T17:20:39.688Z,13.03
2023-02-11T17:22:42.268Z,12.20
2023-02-11T17:24:45.010Z,12.17
2023-02-11T17:26:48.377Z,14.00
2023-02-11T17:28:50.876Z,14.20
2023-02-11T17:30:53.684Z,13.50
2023-02-11T17:32:56.539Z,14.03
2023-02-11T17:34:58.761Z,14.50
2023-02-11T17:37:07.707Z,13.67
2023-02-11T17:39:10.242Z,13.30
2023-02-11T17:41:13.091Z,15.00
2023-02-11T17:43:15.900Z,13.33
2023-02-11T17:45:21.173Z,12.70
2023-02-11T17:47:24.920Z,15.03
2023-02-11T17:49:27.703Z,14.47
2023-02-11T17:51:33.112Z,13.53
2023-02-11T17:53:35.888Z,14.93
2023-02-11T17:55:38.617Z,14.53
2023-02-11T17:57:41.529Z,14.87
2023-02-11T17:59:44.052Z,14.40
2023-02-11T18:01:47.162Z,15.33
2023-02-11T18:03:49.369Z,14.47
2023-02-11T18:05:52.522Z,14.50
2023-02-11T18:07:55.634Z,15.97
2023-02-11T18:09:58.431Z,14.13
2023-02-11T18:12:01.088Z,15.13
2023-02-11T18:14:04.806Z,16.40
2023-02-11T18:16:15.746Z,16.07
2023-02-11T18:18:18.297Z,15.70
2023-02-11T18:20:20.460Z,15.77
2023-02-11T18:22:23.813Z,15.27
2023-02-11T18:24:26.391Z,15.60
2023-02-11T18:26:29.224Z,15.37
2023-02-11T18:28:31.832Z,15.35
2023-02-11T18:30:34.252Z,15.53
2023-02-11T18:32:36.773Z,14.23
2023-02-11T18:34:41.076Z,15.50
2023-02-11T18:36:43.661Z,15.80
2023-02-11T18:38:46.200Z,16.20
2023-02-11T18:40:50.456Z,15.77
2023-02-11T18:42:53.296Z,16.10
2023-02-11T18:44:55.856Z,15.63
2023-02-11T18:46:58.664Z,14.77
2023-02-11T18:49:01.315Z,15.77
2023-02-11T18:51:12.331Z,15.00
2023-02-11T18:53:17.902Z,13.93
2023-02-11T18:55:23.696Z,15.73
2023-02-11T18:57:26.353Z,17.03
2023-02-11T18:59:29.047Z,16.00
2023-02-11T19:01:33.774Z,16.20
2023-02-11T19:03:36.675Z,16.17
2023-02-11T19:05:46.466Z,15.00
2023-02-11T19:09:50.912Z,14.80
2023-02-11T19:11:54.566Z,14.30
2023-02-11T19:13:57.438Z,14.47
2023-02-11T19:16:00.320Z,14.77
2023-02-11T19:18:02.894Z,14.53
2023-02-11T19:20:06.125Z,15.03
2023-02-11T19:22:10.585Z,16.20
2023-02-11T19:24:15.601Z,14.70
2023-02-11T19:26:17.749Z,15.33
2023-02-11T19:28:20.557Z,15.60
2023-02-11T19:30:23.143Z,16.80
2023-02-11T19:32:25.919Z,16.67
2023-02-11T19:34:28.002Z,15.93
2023-02-11T19:36:30.984Z,16.57
2023-02-11T19:38:33.422Z,15.07
2023-02-11T19:40:36.409Z,14.33
2023-02-11T19:42:39.302Z,14.73
2023-02-11T19:44:41.796Z,14.90
2023-02-11T19:46:46.079Z,15.57
2023-02-11T19:48:49.429Z,16.23
2023-02-11T19:50:51.962Z,14.20
2023-02-11T19:52:55.499Z,14.57
2023-02-11T19:54:58.355Z,15.57
2023-02-11T19:57:00.840Z,14.88
2023-02-11T19:59:03.852Z,14.93
2023-02-11T20:01:22.879Z,14.10
2023-02-11T20:03:25.780Z,15.13
2023-02-11T20:05:28.285Z,14.03
2023-02-11T20:07:31.118Z,15.37
2023-02-11T20:09:33.582Z,15.85
2023-02-11T20:11:36.901Z,16.20
2023-02-11T20:13:39.801Z,15.57
2023-02-11T20:15:42.719Z,16.17
2023-02-11T20:17:45.332Z,16.00
2023-02-11T20:19:48.173Z,15.00
2023-02-11T20:21:53.419Z,14.53
2023-02-11T20:23:56.537Z,15.17
2023-02-11T20:25:58.980Z,15.23
2023-02-11T20:28:01.872Z,14.60
2023-02-11T20:30:05.101Z,14.30
2023-02-11T20:32:08.562Z,14.70
2023-02-11T20:34:12.355Z,14.87
2023-02-11T20:36:18.317Z,15.47
2023-02-11T20:38:20.815Z,15.47
2023-02-11T20:40:23.634Z,15.03
2023-02-11T20:42:26.531Z,14.77
2023-02-11T20:44:29.440Z,15.93
2023-02-11T20:46:33.404Z,14.80
2023-02-11T20:48:35.840Z,15.00
2023-02-11T20:50:38.504Z,15.47
2023-02-11T20:52:41.335Z,14.80
2023-02-11T20:54:46.492Z,14.17
2023-02-11T20:56:51.259Z,15.90
2023-02-11T20:58:53.681Z,15.63
2023-02-11T21:00:56.503Z,15.73
2023-02-11T21:02:59.027Z,16.47
2023-02-11T21:05:01.997Z,15.68
2023-02-11T21:07:04.505Z,16.27
2023-02-11T21:09:08.877Z,17.23
2023-02-11T21:11:11.833Z,15.63
2023-02-11T21:13:14.649Z,18.37
2023-02-11T21:15:17.188Z,16.87
2023-02-11T21:17:20.112Z,18.30
2023-02-11T21:19:22.692Z,18.53
2023-02-11T21:21:25.568Z,17.13
2023-02-11T21:23:29.156Z,16.97
2023-02-11T21:25:31.972Z,16.70
2023-02-11T21:27:35.568Z,17.53
2023-02-11T21:29:52.782Z,16.47
2023-02-11T21:31:56.887Z,15.70
2023-02-11T21:34:02.036Z,16.73
2023-02-11T21:36:07.853Z,17.00
2023-02-11T21:38:12.986Z,15.03
2023-02-11T21:40:15.978Z,18.17
2023-02-11T21:42:18.472Z,16.37
2023-02-11T21:44:21.045Z,17.37
2023-02-11T21:46:24.067Z,17.63
2023-02-11T21:48:26.976Z,16.67
2023-02-11T21:50:29.734Z,17.33
2023-02-11T21:52:32.227Z,16.57
2023-02-11T21:54:34.992Z,16.40
2023-02-11T21:56:37.556Z,16.53
2023-02-11T21:58:40.339Z,18.17
2023-02-11T22:00:42.871Z,16.10
2023-02-11T22:02:47.246Z,16.63
2023-02-11T22:04:51.028Z,17.00
2023-02-11T22:06:53.924Z,16.85
2023-02-11T22:08:56.470Z,17.53
2023-02-11T22:11:06.689Z,15.23
2023-02-11T22:13:09.169Z,15.98
2023-02-11T22:15:11.729Z,15.87
2023-02-11T22:17:14.305Z,15.97
2023-02-11T22:19:17.418Z,15.07
2023-02-11T22:21:21.719Z,15.20
2023-02-11T22:23:24.203Z,13.30
2023-02-11T22:25:26.697Z,13.02
2023-02-11T22:27:29.503Z,13.52
2023-02-11T22:29:32.033Z,12.63
2023-02-11T22:31:35.357Z,12.83
2023-02-11T22:33:37.928Z,12.77
2023-02-11T22:35:40.681Z,12.93
2023-02-11T22:37:42.874Z,11.73
2023-02-11T22:39:45.788Z,11.97
2023-02-11T22:41:48.575Z,13.23
2023-02-11T22:43:51.520Z,11.93
2023-02-11T22:45:56.634Z,12.30
2023-02-11T22:47:59.641Z,11.82
2023-02-11T22:50:02.103Z,11.53
2023-02-11T22:52:04.923Z,11.27
2023-02-11T22:54:10.276Z,11.27
2023-02-11T22:56:15.583Z,12.02
2023-02-11T22:58:18.912Z,12.45
2023-02-11T23:00:24.096Z,10.73
2023-02-11T23:02:26.559Z,10.63
2023-02-11T23:04:29.377Z,12.27
2023-02-11T23:06:32.536Z,11.60
2023-02-11T23:08:35.525Z,10.83
2023-02-11T23:10:39.747Z,11.07
2023-02-11T23:12:42.708Z,11.67
2023-02-11T23:14:45.687Z,11.03
2023-02-11T23:16:51.224Z,11.40
2023-02-11T23:18:54.340Z,10.25
2023-02-11T23:20:57.206Z,9.80
2023-02-11T23:22:59.817Z,5.63
2023-02-11T23:25:02.631Z,2.80
2023-02-11T23:27:05.278Z,2.33
2023-02-11T23:29:08.172Z,2.30
2023-02-11T23:31:14.698Z,2.30
2023-02-11T23:33:17.291Z,1.70
2023-02-11T23:35:24.445Z,1.50
2023-02-11T23:37:27.067Z,1.40
2023-02-11T23:39:30.618Z,1.07
2023-02-11T23:41:33.955Z,1.00
2023-02-11T23:43:36.615Z,1.20
2023-02-11T23:45:39.388Z,1.10
2023-02-11T23:47:43.264Z,1.30
2023-02-11T23:49:46.972Z,0.93
2023-02-11T23:51:51.274Z,1.83
2023-02-11T23:53:56.757Z,1.03
2023-02-11T23:55:59.976Z,1.37
2023-02-11T23:58:02.465Z,1.00
